sensor_id;sensor_type;location;lat;lon;timestamp;P1;durP1;ratioP1;P2;durP2;ratioP2
9729;SDS011;4904;49.152;11.004;2023-05-23T00:01:01;10.77;;;9.75;;
9729;SDS011;4904;49.152;11.004;2023-05-23T00:03:30;11.48;;;10.43;;
9729;SDS011;4904;49.152;11.004;2023-05-23T00:05:57;11.02;;;9.98;;
9729;SDS011;4904;49.152;11.004;2023-05-23T00:08:26;11.40;;;10.35;;
9729;SDS011;4904;49.152;11.004;2023-05-23T00:10:53;11.35;;;10.00;;
9729;SDS011;4904;49.152;11.004;2023-05-23T00:13:21;11.55;;;10.35;;
9729;SDS011;4904;49.152;11.004;2023-05-23T00:15:48;11.15;;;10.02;;
9729;SDS011;4904;49.152;11.004;2023-05-23T00:18:16;10.88;;;9.88;;
9729;SDS011;4904;49.152;11.004;2023-05-23T00:20:43;11.57;;;10.57;;
9729;SDS011;4904;49.152;11.004;2023-05-23T00:23:11;11.80;;;10.48;;
9729;SDS011;4904;49.152;11.004;2023-05-23T00:25:44;11.25;;;10.15;;
9729;SDS011;4904;49.152;11.004;2023-05-23T00:28:17;10.90;;;9.80;;
9729;SDS011;4904;49.152;11.004;2023-05-23T00:30:44;10.70;;;9.75;;
9729;SDS011;4904;49.152;11.004;2023-05-23T00:33:13;10.65;;;9.60;;
9729;SDS011;4904;49.152;11.004;2023-05-23T00:35:40;11.63;;;10.63;;
9729;SDS011;4904;49.152;11.004;2023-05-23T00:38:07;11.60;;;10.40;;
9729;SDS011;4904;49.152;11.004;2023-05-23T00:40:35;10.15;;;9.20;;
9729;SDS011;4904;49.152;11.004;2023-05-23T00:43:04;10.93;;;9.93;;
9729;SDS011;4904;49.152;11.004;2023-05-23T00:45:32;10.82;;;9.82;;
9729;SDS011;4904;49.152;11.004;2023-05-23T00:48:00;11.15;;;9.93;;
9729;SDS011;4904;49.152;11.004;2023-05-23T00:50:28;12.40;;;10.18;;
9729;SDS011;4904;49.152;11.004;2023-05-23T00:52:56;11.55;;;9.77;;
9729;SDS011;4904;49.152;11.004;2023-05-23T00:55:25;10.88;;;9.88;;
9729;SDS011;4904;49.152;11.004;2023-05-23T00:57:53;11.23;;;10.07;;
9729;SDS011;4904;49.152;11.004;2023-05-23T01:00:23;10.95;;;9.85;;
9729;SDS011;4904;49.152;11.004;2023-05-23T01:02:51;10.88;;;9.77;;
9729;SDS011;4904;49.152;11.004;2023-05-23T01:05:19;10.15;;;9.07;;
9729;SDS011;4904;49.152;11.004;2023-05-23T01:07:49;10.35;;;9.45;;
9729;SDS011;4904;49.152;11.004;2023-05-23T01:10:18;11.15;;;10.00;;
9729;SDS011;4904;49.152;11.004;2023-05-23T01:12:50;10.55;;;9.57;;
9729;SDS011;4904;49.152;11.004;2023-05-23T01:15:27;10.35;;;9.45;;
9729;SDS011;4904;49.152;11.004;2023-05-23T01:17:59;11.18;;;10.13;;
9729;SDS011;4904;49.152;11.004;2023-05-23T01:20:33;11.57;;;10.48;;
9729;SDS011;4904;49.152;11.004;2023-05-23T01:26:03;11.40;;;10.30;;
9729;SDS011;4904;49.152;11.004;2023-05-23T01:28:46;12.18;;;11.07;;
9729;SDS011;4904;49.152;11.004;2023-05-23T01:31:15;10.25;;;9.35;;
9729;SDS011;4904;49.152;11.004;2023-05-23T01:33:43;11.25;;;10.13;;
9729;SDS011;4904;49.152;11.004;2023-05-23T01:36:14;11.80;;;10.65;;
9729;SDS011;4904;49.152;11.004;2023-05-23T01:38:41;11.52;;;10.40;;
9729;SDS011;4904;49.152;11.004;2023-05-23T01:41:08;12.32;;;11.13;;
9729;SDS011;4904;49.152;11.004;2023-05-23T01:43:36;12.55;;;11.10;;
9729;SDS011;4904;49.152;11.004;2023-05-23T01:46:05;12.30;;;10.52;;
9729;SDS011;4904;49.152;11.004;2023-05-23T01:48:36;12.15;;;10.95;;
9729;SDS011;4904;49.152;11.004;2023-05-23T01:51:05;12.23;;;10.93;;
9729;SDS011;4904;49.152;11.004;2023-05-23T01:53:32;12.48;;;10.70;;
9729;SDS011;4904;49.152;11.004;2023-05-23T01:56:01;11.38;;;10.38;;
9729;SDS011;4904;49.152;11.004;2023-05-23T01:58:29;11.50;;;10.50;;
9729;SDS011;4904;49.152;11.004;2023-05-23T02:00:57;12.73;;;10.73;;
9729;SDS011;4904;49.152;11.004;2023-05-23T02:03:27;11.85;;;10.75;;
9729;SDS011;4904;49.152;11.004;2023-05-23T02:05:55;12.18;;;10.85;;
9729;SDS011;4904;49.152;11.004;2023-05-23T02:08:22;11.63;;;10.63;;
9729;SDS011;4904;49.152;11.004;2023-05-23T02:10:49;11.65;;;10.55;;
9729;SDS011;4904;49.152;11.004;2023-05-23T02:13:16;11.45;;;10.40;;
9729;SDS011;4904;49.152;11.004;2023-05-23T02:15:43;13.70;;;11.50;;
9729;SDS011;4904;49.152;11.004;2023-05-23T02:18:10;12.18;;;11.00;;
9729;SDS011;4904;49.152;11.004;2023-05-23T02:20:39;11.48;;;10.40;;
9729;SDS011;4904;49.152;11.004;2023-05-23T02:23:06;11.77;;;10.75;;
9729;SDS011;4904;49.152;11.004;2023-05-23T02:25:35;12.25;;;10.90;;
9729;SDS011;4904;49.152;11.004;2023-05-23T02:28:02;11.82;;;10.73;;
9729;SDS011;4904;49.152;11.004;2023-05-23T02:30:30;11.57;;;10.43;;
9729;SDS011;4904;49.152;11.004;2023-05-23T02:32:57;11.55;;;10.45;;
9729;SDS011;4904;49.152;11.004;2023-05-23T02:35:25;11.18;;;10.05;;
9729;SDS011;4904;49.152;11.004;2023-05-23T02:37:54;11.60;;;10.50;;
9729;SDS011;4904;49.152;11.004;2023-05-23T02:40:21;12.00;;;10.93;;
9729;SDS011;4904;49.152;11.004;2023-05-23T02:42:49;12.30;;;11.10;;
9729;SDS011;4904;49.152;11.004;2023-05-23T02:45:16;11.90;;;10.82;;
9729;SDS011;4904;49.152;11.004;2023-05-23T02:47:43;12.57;;;11.38;;
9729;SDS011;4904;49.152;11.004;2023-05-23T02:50:10;10.55;;;9.65;;
9729;SDS011;4904;49.152;11.004;2023-05-23T02:52:37;12.48;;;11.13;;
9729;SDS011;4904;49.152;11.004;2023-05-23T02:55:08;12.52;;;11.30;;
9729;SDS011;4904;49.152;11.004;2023-05-23T02:57:35;13.40;;;12.10;;
9729;SDS011;4904;49.152;11.004;2023-05-23T03:00:03;12.43;;;11.27;;
9729;SDS011;4904;49.152;11.004;2023-05-23T03:02:30;13.00;;;11.80;;
9729;SDS011;4904;49.152;11.004;2023-05-23T03:04:58;13.30;;;11.82;;
9729;SDS011;4904;49.152;11.004;2023-05-23T03:07:27;14.43;;;10.82;;
9729;SDS011;4904;49.152;11.004;2023-05-23T03:09:58;12.40;;;11.10;;
9729;SDS011;4904;49.152;11.004;2023-05-23T03:12:30;12.10;;;11.00;;
9729;SDS011;4904;49.152;11.004;2023-05-23T03:14:57;12.43;;;11.15;;
9729;SDS011;4904;49.152;11.004;2023-05-23T03:17:24;13.70;;;12.18;;
9729;SDS011;4904;49.152;11.004;2023-05-23T03:19:51;12.75;;;11.57;;
9729;SDS011;4904;49.152;11.004;2023-05-23T03:22:19;13.98;;;11.25;;
9729;SDS011;4904;49.152;11.004;2023-05-23T03:24:46;13.70;;;12.38;;
9729;SDS011;4904;49.152;11.004;2023-05-23T03:27:13;14.13;;;11.85;;
9729;SDS011;4904;49.152;11.004;2023-05-23T03:29:42;13.93;;;12.45;;
9729;SDS011;4904;49.152;11.004;2023-05-23T03:32:09;12.40;;;11.20;;
9729;SDS011;4904;49.152;11.004;2023-05-23T03:34:36;13.02;;;11.82;;
9729;SDS011;4904;49.152;11.004;2023-05-23T03:37:03;12.15;;;11.05;;
9729;SDS011;4904;49.152;11.004;2023-05-23T03:39:30;11.95;;;10.85;;
9729;SDS011;4904;49.152;11.004;2023-05-23T03:41:58;10.88;;;9.77;;
9729;SDS011;4904;49.152;11.004;2023-05-23T03:44:25;12.48;;;10.80;;
9729;SDS011;4904;49.152;11.004;2023-05-23T03:46:53;12.30;;;11.07;;
9729;SDS011;4904;49.152;11.004;2023-05-23T03:49:20;12.90;;;11.57;;
9729;SDS011;4904;49.152;11.004;2023-05-23T03:51:47;12.48;;;11.27;;
9729;SDS011;4904;49.152;11.004;2023-05-23T03:54:14;12.40;;;10.93;;
9729;SDS011;4904;49.152;11.004;2023-05-23T03:56:43;12.52;;;11.23;;
9729;SDS011;4904;49.152;11.004;2023-05-23T03:59:10;12.25;;;11.10;;
9729;SDS011;4904;49.152;11.004;2023-05-23T04:01:37;12.40;;;11.20;;
9729;SDS011;4904;49.152;11.004;2023-05-23T04:04:06;12.20;;;11.02;;
9729;SDS011;4904;49.152;11.004;2023-05-23T04:06:33;12.35;;;11.15;;
9729;SDS011;4904;49.152;11.004;2023-05-23T04:09:00;11.55;;;10.48;;
9729;SDS011;4904;49.152;11.004;2023-05-23T04:11:30;11.88;;;10.68;;
9729;SDS011;4904;49.152;11.004;2023-05-23T04:13:57;15.07;;;11.57;;
9729;SDS011;4904;49.152;11.004;2023-05-23T04:16:26;12.75;;;11.52;;
9729;SDS011;4904;49.152;11.004;2023-05-23T04:18:56;12.57;;;11.30;;
9729;SDS011;4904;49.152;11.004;2023-05-23T04:21:25;12.32;;;11.13;;
9729;SDS011;4904;49.152;11.004;2023-05-23T04:23:54;11.75;;;10.65;;
9729;SDS011;4904;49.152;11.004;2023-05-23T04:26:21;12.95;;;11.45;;
9729;SDS011;4904;49.152;11.004;2023-05-23T04:28:49;11.82;;;10.73;;
9729;SDS011;4904;49.152;11.004;2023-05-23T04:31:18;12.30;;;11.02;;
9729;SDS011;4904;49.152;11.004;2023-05-23T04:33:46;12.48;;;11.07;;
9729;SDS011;4904;49.152;11.004;2023-05-23T04:36:13;11.65;;;10.55;;
9729;SDS011;4904;49.152;11.004;2023-05-23T04:38:42;12.25;;;11.05;;
9729;SDS011;4904;49.152;11.004;2023-05-23T04:41:10;12.55;;;11.30;;
9729;SDS011;4904;49.152;11.004;2023-05-23T04:43:40;12.98;;;11.57;;
9729;SDS011;4904;49.152;11.004;2023-05-23T04:46:08;12.95;;;11.65;;
9729;SDS011;4904;49.152;11.004;2023-05-23T04:48:35;12.43;;;11.13;;
9729;SDS011;4904;49.152;11.004;2023-05-23T04:51:03;13.30;;;11.93;;
9729;SDS011;4904;49.152;11.004;2023-05-23T04:53:33;12.88;;;11.68;;
9729;SDS011;4904;49.152;11.004;2023-05-23T04:56:02;13.55;;;12.18;;
9729;SDS011;4904;49.152;11.004;2023-05-23T04:58:29;15.98;;;12.32;;
9729;SDS011;4904;49.152;11.004;2023-05-23T05:01:04;14.13;;;12.75;;
9729;SDS011;4904;49.152;11.004;2023-05-23T05:03:34;15.65;;;12.88;;
9729;SDS011;4904;49.152;11.004;2023-05-23T05:06:01;14.07;;;12.68;;
9729;SDS011;4904;49.152;11.004;2023-05-23T05:08:30;14.15;;;12.73;;
9729;SDS011;4904;49.152;11.004;2023-05-23T05:10:57;14.00;;;12.60;;
9729;SDS011;4904;49.152;11.004;2023-05-23T05:13:25;16.08;;;13.70;;
9729;SDS011;4904;49.152;11.004;2023-05-23T05:15:54;14.80;;;13.40;;
9729;SDS011;4904;49.152;11.004;2023-05-23T05:18:22;15.18;;;13.68;;
9729;SDS011;4904;49.152;11.004;2023-05-23T05:20:51;15.75;;;14.07;;
9729;SDS011;4904;49.152;11.004;2023-05-23T05:23:18;15.18;;;12.85;;
9729;SDS011;4904;49.152;11.004;2023-05-23T05:25:45;14.43;;;12.93;;
9729;SDS011;4904;49.152;11.004;2023-05-23T05:28:14;16.65;;;13.20;;
9729;SDS011;4904;49.152;11.004;2023-05-23T05:30:43;15.65;;;14.07;;
9729;SDS011;4904;49.152;11.004;2023-05-23T05:33:10;15.50;;;13.93;;
9729;SDS011;4904;49.152;11.004;2023-05-23T05:35:37;14.88;;;13.23;;
9729;SDS011;4904;49.152;11.004;2023-05-23T05:38:04;15.98;;;14.38;;
9729;SDS011;4904;49.152;11.004;2023-05-23T05:40:34;15.65;;;13.93;;
9729;SDS011;4904;49.152;11.004;2023-05-23T05:43:02;14.45;;;12.98;;
9729;SDS011;4904;49.152;11.004;2023-05-23T05:45:31;14.50;;;13.00;;
9729;SDS011;4904;49.152;11.004;2023-05-23T05:48:00;14.45;;;13.00;;
9729;SDS011;4904;49.152;11.004;2023-05-23T05:50:28;13.63;;;12.23;;
9729;SDS011;4904;49.152;11.004;2023-05-23T05:52:55;13.85;;;12.45;;
9729;SDS011;4904;49.152;11.004;2023-05-23T05:55:22;14.20;;;12.48;;
9729;SDS011;4904;49.152;11.004;2023-05-23T05:57:50;14.95;;;12.65;;
9729;SDS011;4904;49.152;11.004;2023-05-23T06:00:17;12.90;;;11.60;;
9729;SDS011;4904;49.152;11.004;2023-05-23T06:02:46;14.50;;;13.00;;
9729;SDS011;4904;49.152;11.004;2023-05-23T06:05:16;14.80;;;12.80;;
9729;SDS011;4904;49.152;11.004;2023-05-23T06:07:45;12.95;;;11.48;;
9729;SDS011;4904;49.152;11.004;2023-05-23T06:10:13;16.50;;;12.55;;
9729;SDS011;4904;49.152;11.004;2023-05-23T06:12:41;15.55;;;11.75;;
9729;SDS011;4904;49.152;11.004;2023-05-23T06:15:09;13.80;;;11.77;;
9729;SDS011;4904;49.152;11.004;2023-05-23T06:17:38;14.48;;;11.52;;
9729;SDS011;4904;49.152;11.004;2023-05-23T06:20:06;13.60;;;10.60;;
9729;SDS011;4904;49.152;11.004;2023-05-23T06:22:35;13.05;;;11.85;;
9729;SDS011;4904;49.152;11.004;2023-05-23T06:25:02;11.55;;;10.32;;
9729;SDS011;4904;49.152;11.004;2023-05-23T06:27:29;13.98;;;12.02;;
9729;SDS011;4904;49.152;11.004;2023-05-23T06:29:56;12.80;;;11.40;;
9729;SDS011;4904;49.152;11.004;2023-05-23T06:32:24;11.82;;;10.73;;
9729;SDS011;4904;49.152;11.004;2023-05-23T06:34:51;10.88;;;9.85;;
9729;SDS011;4904;49.152;11.004;2023-05-23T06:37:18;11.45;;;10.35;;
9729;SDS011;4904;49.152;11.004;2023-05-23T06:39:46;12.43;;;11.13;;
9729;SDS011;4904;49.152;11.004;2023-05-23T06:42:13;9.88;;;8.70;;
9729;SDS011;4904;49.152;11.004;2023-05-23T06:44:41;11.45;;;10.25;;
9729;SDS011;4904;49.152;11.004;2023-05-23T06:47:08;11.40;;;10.38;;
9729;SDS011;4904;49.152;11.004;2023-05-23T06:49:36;11.73;;;10.52;;
9729;SDS011;4904;49.152;11.004;2023-05-23T06:52:03;10.80;;;9.80;;
9729;SDS011;4904;49.152;11.004;2023-05-23T06:54:30;11.43;;;10.20;;
9729;SDS011;4904;49.152;11.004;2023-05-23T06:56:59;12.38;;;11.18;;
9729;SDS011;4904;49.152;11.004;2023-05-23T06:59:26;12.52;;;10.95;;
9729;SDS011;4904;49.152;11.004;2023-05-23T07:01:57;12.05;;;10.75;;
9729;SDS011;4904;49.152;11.004;2023-05-23T07:04:24;12.55;;;10.50;;
9729;SDS011;4904;49.152;11.004;2023-05-23T07:06:52;11.43;;;10.32;;
9729;SDS011;4904;49.152;11.004;2023-05-23T07:09:19;11.68;;;10.57;;
9729;SDS011;4904;49.152;11.004;2023-05-23T07:11:46;11.57;;;10.45;;
9729;SDS011;4904;49.152;11.004;2023-05-23T07:14:15;12.00;;;10.00;;
9729;SDS011;4904;49.152;11.004;2023-05-23T07:16:44;11.05;;;9.85;;
9729;SDS011;4904;49.152;11.004;2023-05-23T07:19:12;10.70;;;9.60;;
9729;SDS011;4904;49.152;11.004;2023-05-23T07:21:39;9.75;;;8.75;;
9729;SDS011;4904;49.152;11.004;2023-05-23T07:24:06;9.57;;;8.68;;
9729;SDS011;4904;49.152;11.004;2023-05-23T07:26:33;10.15;;;9.25;;
9729;SDS011;4904;49.152;11.004;2023-05-23T07:29:01;9.63;;;8.63;;
9729;SDS011;4904;49.152;11.004;2023-05-23T07:31:30;9.48;;;8.60;;
9729;SDS011;4904;49.152;11.004;2023-05-23T07:33:57;9.70;;;8.70;;
9729;SDS011;4904;49.152;11.004;2023-05-23T07:36:24;9.88;;;8.63;;
9729;SDS011;4904;49.152;11.004;2023-05-23T07:38:51;8.90;;;8.10;;
9729;SDS011;4904;49.152;11.004;2023-05-23T07:41:19;10.75;;;8.98;;
9729;SDS011;4904;49.152;11.004;2023-05-23T07:43:46;11.00;;;8.27;;
9729;SDS011;4904;49.152;11.004;2023-05-23T07:46:13;9.68;;;8.70;;
9729;SDS011;4904;49.152;11.004;2023-05-23T07:48:42;9.88;;;8.35;;
9729;SDS011;4904;49.152;11.004;2023-05-23T07:51:09;9.13;;;7.68;;
9729;SDS011;4904;49.152;11.004;2023-05-23T07:53:36;9.40;;;8.52;;
9729;SDS011;4904;49.152;11.004;2023-05-23T07:56:04;9.32;;;8.43;;
9729;SDS011;4904;49.152;11.004;2023-05-23T07:58:32;9.20;;;8.15;;
9729;SDS011;4904;49.152;11.004;2023-05-23T08:01:00;8.82;;;7.93;;
9729;SDS011;4904;49.152;11.004;2023-05-23T08:03:28;10.00;;;8.98;;
9729;SDS011;4904;49.152;11.004;2023-05-23T08:05:56;12.65;;;10.30;;
9729;SDS011;4904;49.152;11.004;2023-05-23T08:08:24;13.68;;;9.93;;
9729;SDS011;4904;49.152;11.004;2023-05-23T08:10:51;11.13;;;10.02;;
9729;SDS011;4904;49.152;11.004;2023-05-23T08:13:18;12.55;;;10.65;;
9729;SDS011;4904;49.152;11.004;2023-05-23T08:15:46;13.32;;;11.00;;
9729;SDS011;4904;49.152;11.004;2023-05-23T08:18:13;11.50;;;10.18;;
9729;SDS011;4904;49.152;11.004;2023-05-23T08:20:41;12.07;;;10.57;;
9729;SDS011;4904;49.152;11.004;2023-05-23T08:23:11;12.77;;;10.23;;
9729;SDS011;4904;49.152;11.004;2023-05-23T08:25:39;11.50;;;10.35;;
9729;SDS011;4904;49.152;11.004;2023-05-23T08:28:06;11.77;;;10.57;;
9729;SDS011;4904;49.152;11.004;2023-05-23T08:30:34;11.60;;;10.25;;
9729;SDS011;4904;49.152;11.004;2023-05-23T08:33:01;11.55;;;9.95;;
9729;SDS011;4904;49.152;11.004;2023-05-23T08:35:29;12.00;;;10.80;;
9729;SDS011;4904;49.152;11.004;2023-05-23T08:38:00;13.23;;;10.70;;
9729;SDS011;4904;49.152;11.004;2023-05-23T08:40:30;11.05;;;9.95;;
9729;SDS011;4904;49.152;11.004;2023-05-23T08:42:57;12.52;;;11.23;;
9729;SDS011;4904;49.152;11.004;2023-05-23T08:45:24;12.40;;;9.85;;
9729;SDS011;4904;49.152;11.004;2023-05-23T08:47:53;11.68;;;10.68;;
9729;SDS011;4904;49.152;11.004;2023-05-23T08:50:21;10.88;;;9.23;;
9729;SDS011;4904;49.152;11.004;2023-05-23T08:52:52;12.70;;;11.50;;
9729;SDS011;4904;49.152;11.004;2023-05-23T08:55:22;11.07;;;10.00;;
9729;SDS011;4904;49.152;11.004;2023-05-23T08:57:52;12.93;;;10.77;;
9729;SDS011;4904;49.152;11.004;2023-05-23T09:00:20;11.48;;;10.38;;
9729;SDS011;4904;49.152;11.004;2023-05-23T09:02:48;10.68;;;9.68;;
9729;SDS011;4904;49.152;11.004;2023-05-23T09:05:16;10.77;;;9.20;;
9729;SDS011;4904;49.152;11.004;2023-05-23T09:07:44;10.40;;;9.40;;
9729;SDS011;4904;49.152;11.004;2023-05-23T09:10:13;10.95;;;8.93;;
9729;SDS011;4904;49.152;11.004;2023-05-23T09:12:44;9.18;;;8.20;;
9729;SDS011;4904;49.152;11.004;2023-05-23T09:15:12;9.02;;;8.18;;
9729;SDS011;4904;49.152;11.004;2023-05-23T09:17:41;8.32;;;7.53;;
9729;SDS011;4904;49.152;11.004;2023-05-23T09:20:10;8.80;;;7.88;;
9729;SDS011;4904;49.152;11.004;2023-05-23T09:22:39;8.95;;;8.05;;
9729;SDS011;4904;49.152;11.004;2023-05-23T09:25:07;8.25;;;7.45;;
9729;SDS011;4904;49.152;11.004;2023-05-23T09:27:35;9.63;;;8.73;;
9729;SDS011;4904;49.152;11.004;2023-05-23T09:30:05;8.88;;;7.95;;
9729;SDS011;4904;49.152;11.004;2023-05-23T09:32:34;9.95;;;8.55;;
9729;SDS011;4904;49.152;11.004;2023-05-23T09:35:04;10.50;;;9.50;;
9729;SDS011;4904;49.152;11.004;2023-05-23T09:37:36;9.45;;;8.55;;
9729;SDS011;4904;49.152;11.004;2023-05-23T09:40:06;10.48;;;9.23;;
9729;SDS011;4904;49.152;11.004;2023-05-23T09:42:35;10.75;;;8.68;;
9729;SDS011;4904;49.152;11.004;2023-05-23T09:45:07;9.63;;;8.73;;
9729;SDS011;4904;49.152;11.004;2023-05-23T09:47:38;13.38;;;9.40;;
9729;SDS011;4904;49.152;11.004;2023-05-23T09:50:05;10.38;;;9.38;;
9729;SDS011;4904;49.152;11.004;2023-05-23T09:52:35;14.32;;;9.57;;
9729;SDS011;4904;49.152;11.004;2023-05-23T09:55:04;10.10;;;9.20;;
9729;SDS011;4904;49.152;11.004;2023-05-23T09:57:32;10.35;;;9.35;;
9729;SDS011;4904;49.152;11.004;2023-05-23T10:00:02;10.25;;;9.35;;
9729;SDS011;4904;49.152;11.004;2023-05-23T10:05:35;10.68;;;8.75;;
9729;SDS011;4904;49.152;11.004;2023-05-23T10:08:07;9.65;;;8.25;;
9729;SDS011;4904;49.152;11.004;2023-05-23T10:13:41;10.00;;;7.88;;
9729;SDS011;4904;49.152;11.004;2023-05-23T10:16:14;9.20;;;7.68;;
9729;SDS011;4904;49.152;11.004;2023-05-23T10:18:51;8.00;;;7.28;;
9729;SDS011;4904;49.152;11.004;2023-05-23T10:21:24;7.03;;;6.38;;
9729;SDS011;4904;49.152;11.004;2023-05-23T10:23:58;8.27;;;6.45;;
9729;SDS011;4904;49.152;11.004;2023-05-23T10:26:26;7.75;;;6.93;;
9729;SDS011;4904;49.152;11.004;2023-05-23T10:28:54;9.32;;;7.03;;
9729;SDS011;4904;49.152;11.004;2023-05-23T10:31:25;11.40;;;7.15;;
9729;SDS011;4904;49.152;11.004;2023-05-23T10:33:57;8.10;;;6.07;;
9729;SDS011;4904;49.152;11.004;2023-05-23T10:36:29;8.20;;;7.40;;
9729;SDS011;4904;49.152;11.004;2023-05-23T10:39:03;10.10;;;7.28;;
9729;SDS011;4904;49.152;11.004;2023-05-23T10:41:37;8.15;;;7.25;;
9729;SDS011;4904;49.152;11.004;2023-05-23T10:44:11;7.03;;;6.20;;
9729;SDS011;4904;49.152;11.004;2023-05-23T10:46:50;8.00;;;7.30;;
9729;SDS011;4904;49.152;11.004;2023-05-23T10:49:20;7.30;;;6.70;;
9729;SDS011;4904;49.152;11.004;2023-05-23T10:52:02;7.32;;;6.63;;
9729;SDS011;4904;49.152;11.004;2023-05-23T10:54:33;8.27;;;7.30;;
9729;SDS011;4904;49.152;11.004;2023-05-23T10:57:01;9.68;;;6.50;;
9729;SDS011;4904;49.152;11.004;2023-05-23T10:59:29;6.80;;;6.20;;
9729;SDS011;4904;49.152;11.004;2023-05-23T11:01:56;7.40;;;6.70;;
9729;SDS011;4904;49.152;11.004;2023-05-23T11:04:28;8.30;;;7.50;;
9729;SDS011;4904;49.152;11.004;2023-05-23T11:06:56;7.28;;;6.57;;
9729;SDS011;4904;49.152;11.004;2023-05-23T11:14:15;7.43;;;6.47;;
9729;SDS011;4904;49.152;11.004;2023-05-23T11:16:43;6.93;;;5.72;;
9729;SDS011;4904;49.152;11.004;2023-05-23T11:19:23;6.60;;;5.93;;
9729;SDS011;4904;49.152;11.004;2023-05-23T11:24:22;5.72;;;4.78;;
9729;SDS011;4904;49.152;11.004;2023-05-23T11:26:53;5.85;;;5.35;;
9729;SDS011;4904;49.152;11.004;2023-05-23T11:29:24;7.10;;;5.97;;
9729;SDS011;4904;49.152;11.004;2023-05-23T11:31:53;6.25;;;5.75;;
9729;SDS011;4904;49.152;11.004;2023-05-23T11:34:21;6.55;;;5.97;;
9729;SDS011;4904;49.152;11.004;2023-05-23T11:39:16;6.25;;;5.20;;
9729;SDS011;4904;49.152;11.004;2023-05-23T11:44:11;6.18;;;5.57;;
9729;SDS011;4904;49.152;11.004;2023-05-23T11:46:40;6.65;;;5.50;;
9729;SDS011;4904;49.152;11.004;2023-05-23T11:49:11;5.07;;;4.57;;
9729;SDS011;4904;49.152;11.004;2023-05-23T11:51:39;5.13;;;4.43;;
9729;SDS011;4904;49.152;11.004;2023-05-23T11:54:06;5.07;;;3.97;;
9729;SDS011;4904;49.152;11.004;2023-05-23T11:56:39;4.45;;;4.05;;
9729;SDS011;4904;49.152;11.004;2023-05-23T11:59:08;4.75;;;4.30;;
9729;SDS011;4904;49.152;11.004;2023-05-23T12:01:37;3.72;;;3.42;;
9729;SDS011;4904;49.152;11.004;2023-05-23T12:04:08;3.88;;;3.58;;
9729;SDS011;4904;49.152;11.004;2023-05-23T12:06:37;4.05;;;3.75;;
9729;SDS011;4904;49.152;11.004;2023-05-23T12:09:06;4.47;;;4.03;;
9729;SDS011;4904;49.152;11.004;2023-05-23T12:11:37;4.07;;;3.65;;
9729;SDS011;4904;49.152;11.004;2023-05-23T12:14:13;4.38;;;3.97;;
9729;SDS011;4904;49.152;11.004;2023-05-23T12:16:44;4.38;;;3.97;;
9729;SDS011;4904;49.152;11.004;2023-05-23T12:19:12;4.10;;;3.70;;
9729;SDS011;4904;49.152;11.004;2023-05-23T12:21:41;3.95;;;3.58;;
9729;SDS011;4904;49.152;11.004;2023-05-23T12:24:13;4.28;;;3.97;;
9729;SDS011;4904;49.152;11.004;2023-05-23T12:26:47;6.28;;;3.38;;
9729;SDS011;4904;49.152;11.004;2023-05-23T12:29:17;4.15;;;3.28;;
9729;SDS011;4904;49.152;11.004;2023-05-23T12:31:49;4.28;;;3.88;;
9729;SDS011;4904;49.152;11.004;2023-05-23T12:34:19;3.83;;;3.53;;
9729;SDS011;4904;49.152;11.004;2023-05-23T12:36:47;3.85;;;3.17;;
9729;SDS011;4904;49.152;11.004;2023-05-23T12:39:22;3.70;;;3.40;;
9729;SDS011;4904;49.152;11.004;2023-05-23T12:41:51;3.60;;;3.30;;
9729;SDS011;4904;49.152;11.004;2023-05-23T12:44:20;2.70;;;2.50;;
9729;SDS011;4904;49.152;11.004;2023-05-23T12:46:47;3.42;;;2.78;;
9729;SDS011;4904;49.152;11.004;2023-05-23T12:49:17;2.35;;;2.15;;
9729;SDS011;4904;49.152;11.004;2023-05-23T12:51:46;2.85;;;2.65;;
9729;SDS011;4904;49.152;11.004;2023-05-23T12:54:14;3.58;;;3.28;;
9729;SDS011;4904;49.152;11.004;2023-05-23T12:56:41;3.55;;;2.70;;
9729;SDS011;4904;49.152;11.004;2023-05-23T12:59:09;3.13;;;2.85;;
9729;SDS011;4904;49.152;11.004;2023-05-23T13:01:37;2.92;;;2.42;;
9729;SDS011;4904;49.152;11.004;2023-05-23T13:04:07;3.20;;;2.78;;
9729;SDS011;4904;49.152;11.004;2023-05-23T13:06:35;2.92;;;2.72;;
9729;SDS011;4904;49.152;11.004;2023-05-23T13:16:31;2.97;;;2.78;;
9729;SDS011;4904;49.152;11.004;2023-05-23T13:19:03;3.50;;;2.55;;
9729;SDS011;4904;49.152;11.004;2023-05-23T13:21:31;3.10;;;2.80;;
9729;SDS011;4904;49.152;11.004;2023-05-23T13:23:59;2.67;;;2.47;;
9729;SDS011;4904;49.152;11.004;2023-05-23T13:26:26;3.05;;;2.85;;
9729;SDS011;4904;49.152;11.004;2023-05-23T13:28:55;3.25;;;2.85;;
9729;SDS011;4904;49.152;11.004;2023-05-23T13:31:23;3.33;;;3.08;;
9729;SDS011;4904;49.152;11.004;2023-05-23T13:36:19;3.50;;;2.95;;
9729;SDS011;4904;49.152;11.004;2023-05-23T13:38:48;3.28;;;3.00;;
9729;SDS011;4904;49.152;11.004;2023-05-23T13:41:15;2.83;;;2.63;;
9729;SDS011;4904;49.152;11.004;2023-05-23T13:43:44;3.08;;;2.60;;
9729;SDS011;4904;49.152;11.004;2023-05-23T13:46:12;5.43;;;2.70;;
9729;SDS011;4904;49.152;11.004;2023-05-23T13:48:41;3.17;;;2.97;;
9729;SDS011;4904;49.152;11.004;2023-05-23T13:51:10;2.80;;;2.60;;
9729;SDS011;4904;49.152;11.004;2023-05-23T13:53:38;3.28;;;2.78;;
9729;SDS011;4904;49.152;11.004;2023-05-23T13:56:10;2.42;;;2.33;;
9729;SDS011;4904;49.152;11.004;2023-05-23T13:58:37;3.55;;;2.33;;
9729;SDS011;4904;49.152;11.004;2023-05-23T14:03:32;2.83;;;2.63;;
9729;SDS011;4904;49.152;11.004;2023-05-23T14:05:59;3.38;;;2.75;;
9729;SDS011;4904;49.152;11.004;2023-05-23T14:11:04;5.15;;;2.47;;
9729;SDS011;4904;49.152;11.004;2023-05-23T14:13:33;3.00;;;2.80;;
9729;SDS011;4904;49.152;11.004;2023-05-23T14:16:01;2.85;;;2.65;;
9729;SDS011;4904;49.152;11.004;2023-05-23T14:18:28;3.00;;;2.35;;
9729;SDS011;4904;49.152;11.004;2023-05-23T14:20:56;2.90;;;2.70;;
9729;SDS011;4904;49.152;11.004;2023-05-23T14:23:23;2.60;;;2.25;;
9729;SDS011;4904;49.152;11.004;2023-05-23T14:25:51;2.42;;;2.33;;
9729;SDS011;4904;49.152;11.004;2023-05-23T14:28:19;4.07;;;2.55;;
9729;SDS011;4904;49.152;11.004;2023-05-23T14:30:48;3.22;;;2.70;;
9729;SDS011;4904;49.152;11.004;2023-05-23T14:33:16;2.55;;;2.35;;
9729;SDS011;4904;49.152;11.004;2023-05-23T14:35:44;2.75;;;2.55;;
9729;SDS011;4904;49.152;11.004;2023-05-23T14:38:12;3.50;;;2.60;;
9729;SDS011;4904;49.152;11.004;2023-05-23T14:40:40;2.85;;;2.60;;
9729;SDS011;4904;49.152;11.004;2023-05-23T14:43:07;2.30;;;2.17;;
9729;SDS011;4904;49.152;11.004;2023-05-23T14:45:35;4.72;;;2.60;;
9729;SDS011;4904;49.152;11.004;2023-05-23T14:48:05;2.95;;;2.70;;
9729;SDS011;4904;49.152;11.004;2023-05-23T14:50:32;2.75;;;2.55;;
9729;SDS011;4904;49.152;11.004;2023-05-23T14:53:01;3.90;;;2.45;;
9729;SDS011;4904;49.152;11.004;2023-05-23T14:55:28;2.70;;;2.50;;
9729;SDS011;4904;49.152;11.004;2023-05-23T14:57:57;2.72;;;2.53;;
9729;SDS011;4904;49.152;11.004;2023-05-23T15:00:25;2.70;;;2.50;;
9729;SDS011;4904;49.152;11.004;2023-05-23T15:02:53;3.20;;;2.90;;
9729;SDS011;4904;49.152;11.004;2023-05-23T15:05:23;2.63;;;2.42;;
9729;SDS011;4904;49.152;11.004;2023-05-23T15:07:51;3.45;;;2.35;;
9729;SDS011;4904;49.152;11.004;2023-05-23T15:10:18;2.97;;;2.65;;
9729;SDS011;4904;49.152;11.004;2023-05-23T15:12:50;3.00;;;2.70;;
9729;SDS011;4904;49.152;11.004;2023-05-23T15:15:17;2.45;;;2.25;;
9729;SDS011;4904;49.152;11.004;2023-05-23T15:17:48;3.00;;;2.80;;
9729;SDS011;4904;49.152;11.004;2023-05-23T15:20:17;2.50;;;2.30;;
9729;SDS011;4904;49.152;11.004;2023-05-23T15:22:46;2.70;;;2.50;;
9729;SDS011;4904;49.152;11.004;2023-05-23T15:25:15;2.78;;;2.05;;
9729;SDS011;4904;49.152;11.004;2023-05-23T15:27:43;2.50;;;2.30;;
9729;SDS011;4904;49.152;11.004;2023-05-23T15:30:12;2.25;;;2.15;;